Terminal Aerodrome Forecast
Issued by NWS

Home | Current Version | Previous Version | Text Only | Print | Product List | Glossary On
Versions: 1 2 3 4 5 6 7 8 9 10 11 12 13 14 15 16 17 18 19 20 21 22 23 24 25 26 27
000
FTUS43 KLSX 050727 AAA
TAFSUS
TAF AMD
KSUS 050727Z 0507/0606 VRB03KT 5SM BR SCT250
      TEMPO 0507/0509 2SM BR
     FM050900 VRB03KT 2SM BR SKC
      TEMPO 0509/0513 3/4SM BR
     FM051400 16006KT P6SM SCT250=

USA.gov is the U.S. government's official web portal to all federal, state and local government web resources and services.